GCGM Airport Information

Runway Information
Runway 09 Length 4921 ft width 98 ft
Elevation 716 ft Threshold 0 ft Heading 81
Runway 27 Length 4921 ft Width 98 ft
Elevation 712 ft Threshold 0 ft Heading 261
Airport Frequencies
Type GND Name GND Frequency 121.7 MHZ
Type TWR Name TWR Frequency 118.4 MHZ
Airport Navaids
Type VOR-DME Name La Gomera Frequency 116000 KHZ
Airport Weather Information & NOTAM
ADDS - METARS form results

(1245 UTC 23 February 2019)
Data provider http://aviationweather.gov/metar/data/
 
METAR text: GCGM 231230Z 08007KT 030V150 CAVOK 25/03 Q1024 RMK R09/08010KT 050V120 ARP/09009KT 060V140
Conditions at: GCGM (LA GOMERA ARPT , ES) observed 1230 UTC 23 February 2019
Temperature: 25.0°C (77°F)
Dewpoint: 3.0°C (37°F) [RH = 24%]
Pressure (altimeter): 30.24 inches Hg (1024.0 mb)
Winds: from the E (80 degrees) at 8 MPH (7 knots; 3.6 m/s)
Visibility: 6 or more miles (10+ km)
Ceiling: ceiling and visibility are OK
Clouds: unknown
Weather: no significant weather observed at this time

METAR text: GCGM 231200Z 07008KT 020V120 CAVOK 25/02 Q1024 RMK R09/08010KT ARP/09009KT 050V120
Conditions at: GCGM (LA GOMERA ARPT , ES) observed 1200 UTC 23 February 2019
Temperature: 25.0°C (77°F)
Dewpoint: 2.0°C (36°F) [RH = 22%]
Pressure (altimeter): 30.24 inches Hg (1024.0 mb)
Winds: from the ENE (70 degrees) at 9 MPH (8 knots; 4.1 m/s)
Visibility: 6 or more miles (10+ km)
Ceiling: ceiling and visibility are OK
Clouds: unknown
Weather: no significant weather observed at this time

Forecast for: GCGM (LA GOMERA ARPT , ES)
Text: TAF GCGM 230800Z 2309/2409 09007KT 9000 NSC TX26/2314Z TN17/2406Z
Forecast period: 0900 UTC 23 February 2019 to 0900 UTC 24 February 2019
Forecast type: FROM: standard forecast or significant change
Winds: from the E (90 degrees) at 8 MPH (7 knots; 3.6 m/s)
Visibility: 6 miles (9 km)
Ceiling: unknown
Clouds: missing
Weather: no significant weather forecast for this period
Text: PROB30
Forecast period: 1500 to 1900 UTC 23 February 2019
Forecast type: TEMPORARY: The following changes expected for less than half the time period
Visibility: 2.80 miles (4.51 km)
Ceiling: unknown
Clouds: missing
Weather: HZ  (haze)